createdAt,value
2023-02-16T06:33:03.768Z,6.28
2023-02-16T06:35:31.130Z,5.78
2023-02-16T06:37:59.240Z,5.75
2023-02-16T06:40:26.801Z,6.80
2023-02-16T06:42:54.117Z,6.32
2023-02-16T06:45:21.337Z,5.78
2023-02-16T06:47:51.300Z,5.25
2023-02-16T06:50:19.118Z,6.45
2023-02-16T06:52:46.806Z,5.50
2023-02-16T06:55:13.944Z,6.07
2023-02-16T06:57:41.958Z,6.05
2023-02-16T07:00:09.926Z,5.82
2023-02-16T07:02:37.818Z,7.03
2023-02-16T07:05:06.591Z,7.80
2023-02-16T07:07:35.600Z,5.78
2023-02-16T07:10:12.597Z,5.82
2023-02-16T07:12:45.827Z,9.38
2023-02-16T07:15:32.879Z,8.35
2023-02-16T07:18:04.951Z,8.85
2023-02-16T07:20:36.240Z,7.70
2023-02-16T07:23:07.995Z,8.07
2023-02-16T07:25:44.500Z,7.40
2023-02-16T07:28:28.213Z,7.57
2023-02-16T07:31:23.227Z,7.43
2023-02-16T07:33:54.684Z,7.55
2023-02-16T07:36:28.731Z,7.13
2023-02-16T07:39:04.791Z,6.18
2023-02-16T07:41:41.738Z,6.80
2023-02-16T07:44:11.495Z,7.57
2023-02-16T07:46:43.345Z,6.60
2023-02-16T07:49:17.903Z,6.75
2023-02-16T07:51:54.467Z,5.95
2023-02-16T07:54:25.015Z,6.78
2023-02-16T07:56:55.114Z,8.18
2023-02-16T07:59:25.516Z,7.13
2023-02-16T08:02:03.301Z,7.32
2023-02-16T08:04:32.078Z,7.65
2023-02-16T08:07:04.500Z,7.22
2023-02-16T08:09:32.799Z,8.55
2023-02-16T08:12:01.505Z,9.25
2023-02-16T08:14:29.356Z,9.00
2023-02-16T08:16:57.826Z,14.15
2023-02-16T08:19:26.095Z,12.07
2023-02-16T08:21:54.521Z,9.00
2023-02-16T08:24:21.876Z,6.55
2023-02-16T08:26:50.025Z,7.88
2023-02-16T08:29:20.427Z,7.28
2023-02-16T08:31:48.448Z,7.15
2023-02-16T08:34:17.510Z,7.78
2023-02-16T08:36:47.278Z,9.57
2023-02-16T08:39:20.795Z,12.68
2023-02-16T08:41:50.029Z,9.63
2023-02-16T08:44:18.578Z,10.48
2023-02-16T08:46:47.719Z,7.20
2023-02-16T08:49:18.615Z,7.05
2023-02-16T08:51:52.531Z,8.05
2023-02-16T08:54:27.189Z,7.60
2023-02-16T08:56:56.734Z,5.80
2023-02-16T08:59:28.233Z,7.28
2023-02-16T09:01:58.589Z,6.90
2023-02-16T09:04:29.340Z,7.40
2023-02-16T09:06:58.777Z,6.90
2023-02-16T09:09:27.882Z,6.82
2023-02-16T09:11:55.984Z,7.07
2023-02-16T09:14:24.101Z,6.72
2023-02-16T09:19:21.672Z,7.00
2023-02-16T09:21:51.285Z,7.97
2023-02-16T09:24:19.546Z,7.55
2023-02-16T09:26:47.244Z,7.25
2023-02-16T09:29:15.705Z,8.05
2023-02-16T09:31:44.680Z,7.60
2023-02-16T09:34:18.204Z,7.55
2023-02-16T09:36:47.345Z,9.40
2023-02-16T09:39:17.017Z,7.45
2023-02-16T09:41:53.477Z,7.68
2023-02-16T09:44:38.218Z,16.65
2023-02-16T09:47:14.541Z,8.95
2023-02-16T09:49:45.305Z,6.97
2023-02-16T09:52:40.782Z,8.93
2023-02-16T09:55:13.213Z,10.60
2023-02-16T09:57:54.662Z,9.32
2023-02-16T10:00:25.752Z,8.07
2023-02-16T10:03:13.804Z,8.93
2023-02-16T10:06:05.771Z,9.50
2023-02-16T10:08:45.397Z,9.20
2023-02-16T10:11:38.794Z,7.60
2023-02-16T10:14:18.630Z,8.43
2023-02-16T10:17:15.922Z,8.50
2023-02-16T10:19:55.895Z,7.03
2023-02-16T10:22:52.863Z,10.85
2023-02-16T10:25:29.339Z,8.95
2023-02-16T10:28:18.253Z,8.75
2023-02-16T10:31:06.313Z,8.40
2023-02-16T10:33:45.420Z,5.72
2023-02-16T10:36:35.352Z,4.43
2023-02-16T10:39:30.180Z,4.07
2023-02-16T10:42:06.618Z,4.03
2023-02-16T10:45:36.329Z,4.22
2023-02-16T10:47:40.905Z,4.90
2023-02-16T10:50:32.092Z,4.07
2023-02-16T10:53:07.270Z,4.13
2023-02-16T10:55:34.630Z,4.22
2023-02-16T10:58:04.566Z,4.15
2023-02-16T11:00:49.656Z,4.40
2023-02-16T11:03:20.348Z,5.00
2023-02-16T11:05:47.809Z,4.40
2023-02-16T11:08:15.340Z,4.38
2023-02-16T11:10:49.090Z,3.97
2023-02-16T11:13:32.462Z,4.43
2023-02-16T11:16:12.101Z,3.90
2023-02-16T11:18:45.511Z,3.88
2023-02-16T11:21:13.712Z,5.05
2023-02-16T11:23:43.621Z,5.30
2023-02-16T11:26:11.902Z,4.85
2023-02-16T11:28:48.256Z,5.15
2023-02-16T11:31:34.133Z,5.93
2023-02-16T11:34:05.891Z,5.15
2023-02-16T11:36:36.082Z,4.90
2023-02-16T11:39:15.978Z,5.18
2023-02-16T11:41:56.253Z,4.43
2023-02-16T11:44:32.376Z,4.40
2023-02-16T11:47:08.741Z,4.40
2023-02-16T11:49:39.079Z,3.80
2023-02-16T11:52:24.695Z,3.85
2023-02-16T11:55:00.083Z,3.92
2023-02-16T11:57:31.875Z,3.40
2023-02-16T12:00:02.319Z,3.63
2023-02-16T12:02:32.654Z,4.30
2023-02-16T12:05:20.558Z,3.70
2023-02-16T12:08:09.281Z,3.25
2023-02-16T12:10:54.856Z,3.00
2023-02-16T12:13:26.560Z,2.80
2023-02-16T12:16:18.676Z,3.63
2023-02-16T12:19:14.113Z,3.15
2023-02-16T12:22:05.844Z,3.10
2023-02-16T12:24:48.350Z,3.83
2023-02-16T12:27:30.457Z,3.03
2023-02-16T12:30:22.263Z,3.10
2023-02-16T12:33:15.156Z,3.50
2023-02-16T12:35:50.887Z,2.80
2023-02-16T12:38:30.531Z,2.97
2023-02-16T12:41:26.526Z,4.03
2023-02-16T12:44:08.513Z,3.30
2023-02-16T12:46:46.963Z,2.75
2023-02-16T12:49:27.569Z,2.55
2023-02-16T12:52:07.392Z,2.78
2023-02-16T12:54:41.726Z,3.17
2023-02-16T12:57:24.183Z,2.85
2023-02-16T13:00:23.204Z,2.78
2023-02-16T13:03:16.277Z,2.85
2023-02-16T13:05:56.974Z,2.63
2023-02-16T13:08:54.855Z,2.97
2023-02-16T13:11:36.410Z,2.72
2023-02-16T13:14:19.850Z,2.88
2023-02-16T13:17:21.468Z,2.75
2023-02-16T13:19:53.535Z,2.67
2023-02-16T13:22:36.971Z,2.75
2023-02-16T13:25:08.166Z,2.42
2023-02-16T13:27:42.880Z,2.42
2023-02-16T13:30:31.701Z,2.50
2023-02-16T13:33:17.294Z,3.03
2023-02-16T13:36:02.992Z,2.40
2023-02-16T13:38:46.234Z,2.40
2023-02-16T13:41:32.111Z,2.47
2023-02-16T13:44:33.533Z,2.47
2023-02-16T13:47:05.034Z,2.63
2023-02-16T13:49:32.476Z,3.13
2023-02-16T13:52:00.515Z,2.90
2023-02-16T13:54:31.718Z,2.70
2023-02-16T13:57:03.610Z,2.35
2023-02-16T13:59:36.750Z,3.22
2023-02-16T14:02:11.144Z,2.35
2023-02-16T14:04:39.719Z,2.70
2023-02-16T14:07:11.004Z,2.75
2023-02-16T14:09:39.126Z,2.92
2023-02-16T14:12:09.508Z,3.05
2023-02-16T14:14:56.910Z,2.70
2023-02-16T14:17:31.144Z,2.70
2023-02-16T14:20:00.699Z,4.32
2023-02-16T14:22:43.791Z,3.55
2023-02-16T14:25:23.219Z,2.78
2023-02-16T14:27:59.095Z,2.95
2023-02-16T14:30:36.291Z,2.47
2023-02-16T14:33:12.789Z,3.28
2023-02-16T14:36:00.545Z,2.65
2023-02-16T14:38:50.933Z,2.42
2023-02-16T14:41:32.385Z,2.47
2023-02-16T14:44:02.525Z,3.53
2023-02-16T14:46:35.976Z,2.85
2023-02-16T14:49:06.748Z,2.08
2023-02-16T14:52:03.892Z,3.17
2023-02-16T14:54:49.571Z,2.95
2023-02-16T14:57:40.974Z,2.72
2023-02-16T15:00:33.637Z,2.85
2023-02-16T15:03:05.769Z,3.00
2023-02-16T15:05:35.982Z,2.87
2023-02-16T15:08:22.513Z,2.95
2023-02-16T15:10:58.597Z,2.85
2023-02-16T15:13:31.218Z,2.45
2023-02-16T15:16:02.476Z,3.20
2023-02-16T15:18:45.001Z,3.08
2023-02-16T15:21:30.761Z,3.23
2023-02-16T15:24:00.559Z,3.10
2023-02-16T15:26:34.004Z,2.78
2023-02-16T15:29:14.035Z,2.90
2023-02-16T15:31:41.499Z,3.10
2023-02-16T15:34:15.177Z,2.50
2023-02-16T15:36:45.100Z,2.47
2023-02-16T15:39:28.235Z,4.10
2023-02-16T15:42:20.844Z,2.72
2023-02-16T15:44:49.298Z,3.30
2023-02-16T15:47:25.268Z,3.55
2023-02-16T15:49:54.202Z,3.38
2023-02-16T15:52:26.687Z,3.45
2023-02-16T15:54:54.626Z,3.58
2023-02-16T15:57:36.720Z,3.60
2023-02-16T16:00:15.751Z,3.83
2023-02-16T16:02:47.529Z,3.33
2023-02-16T16:05:43.429Z,3.28
2023-02-16T16:08:14.858Z,3.60
2023-02-16T16:10:44.266Z,2.72
2023-02-16T16:13:25.507Z,3.75
2023-02-16T16:15:59.818Z,4.07
2023-02-16T16:18:46.391Z,4.07
2023-02-16T16:21:29.139Z,2.75
2023-02-16T16:23:59.749Z,3.42
2023-02-16T16:26:29.700Z,2.97
2023-02-16T16:28:57.337Z,3.50
2023-02-16T16:31:24.863Z,4.22
2023-02-16T16:34:03.362Z,2.80
2023-02-16T16:36:39.170Z,3.60
2023-02-16T16:39:16.564Z,3.08
2023-02-16T16:42:18.272Z,2.97
2023-02-16T16:44:59.052Z,3.53
2023-02-16T16:47:41.067Z,3.15
2023-02-16T16:52:46.346Z,3.22
2023-02-16T16:55:33.847Z,2.67
2023-02-16T16:58:03.799Z,3.65
